Main page
METAR-TAF:

METAR-TAF

Airports :

León Airport

León, Spain

latitude: 42-35N, longitude: 005-39W, elevation: 926 m

Current weather observation

The report was made 37 minutes ago, at 04:00 UTC
Wind 3 kt from the East, varying between East/Northeast and Southeast
Temperature 1°C
Humidity 93%
Pressure 1029 hPa
Visibility 10 km or more
no clouds below 1500 m and no cumulonimbus

METAR: LELN 210400Z AUTO 10003KT 060V140 CAVOK 01/00 Q1029

Time: 05:37 (04:37 UTC)

Forecast

The report was made 2 hours and 37 minutes ago, at 02:00 UTC
Forecast valid from 21 at 03 UTC to 21 at 12 UTC
Wind 3 kt from variable directions
Visibility 10 km or more
no clouds below 1500 m and no cumulonimbus
Probability 40% :
Temporary
from 21 at 03 UTC to 21 at 10 UTC
Visibility: 3500 m
Broken clouds at a height of 1500 ft
mist
Probability 40% :
Temporary
from 21 at 03 UTC to 21 at 08 UTC
Visibility: 0800 m
at a height of 200 ft
fog

TAF: LELN 210200Z 2103/2112 VRB03KT CAVOK PROB40 TEMPO 2103/2110 3500 BR BKN015 PROB40 TEMPO 2103/2108 0800 FG VV002

Weather observations and forecasts of more than 4000 airports (METAR and TAF reports).

The available stations are represented by yellow and red dots on the map.

Hover mouse over dot to see the name of the station.

Then click to see weather observations and forecasts.

To change the map : click on the green buttons with a black cross to zoom in, on the green button with a dash to zoom out, or on the green arrows for adjacent maps.


METAR-TAF: